METAR Data
IDs: Format: Raw Decoded Include TAF

Data at: 1352 UTC 26 Feb 2021

ELLX 261320Z 03007KT 9999 -RA FEW035 BKN036 05/03 Q1033 NOSIG